createdAt,value
2023-03-29T00:00:43.664Z,0.00
2023-03-29T00:01:38.829Z,0.00
2023-03-29T00:02:34.924Z,0.00
2023-03-29T00:03:30.069Z,0.00
2023-03-29T00:04:25.052Z,0.00
2023-03-29T00:05:20.756Z,0.00
2023-03-29T00:06:15.958Z,0.00
2023-03-29T00:07:11.229Z,0.00
2023-03-29T00:08:07.468Z,0.00
2023-03-29T00:09:02.497Z,0.00
2023-03-29T00:09:58.405Z,0.00
2023-03-29T00:10:53.534Z,0.00
2023-03-29T00:11:48.864Z,0.00
2023-03-29T00:12:44.484Z,0.00
2023-03-29T00:13:39.679Z,0.00
2023-03-29T00:14:35.441Z,0.00
2023-03-29T00:15:30.587Z,0.00
2023-03-29T00:16:25.910Z,0.00
2023-03-29T00:17:21.670Z,0.00
2023-03-29T00:18:17.028Z,0.00
2023-03-29T00:19:12.118Z,0.00
2023-03-29T00:20:08.503Z,0.00
2023-03-29T00:21:04.004Z,0.00
2023-03-29T00:21:59.542Z,0.00
2023-03-29T00:22:54.728Z,0.00
2023-03-29T00:23:49.927Z,0.00
2023-03-29T00:24:45.531Z,0.00
2023-03-29T00:25:40.731Z,0.00
2023-03-29T00:26:36.617Z,0.00
2023-03-29T00:27:31.763Z,0.00
2023-03-29T00:28:27.172Z,0.00
2023-03-29T00:29:22.728Z,0.00
2023-03-29T00:30:17.970Z,0.00
2023-03-29T00:31:13.170Z,0.00
2023-03-29T00:32:09.470Z,0.00
2023-03-29T00:33:04.867Z,0.00
2023-03-29T00:34:00.457Z,0.00
2023-03-29T00:34:55.608Z,0.00
2023-03-29T00:35:50.880Z,0.00
2023-03-29T00:36:45.886Z,0.00
2023-03-29T00:37:41.338Z,0.00
2023-03-29T00:38:37.136Z,0.00
2023-03-29T00:39:32.072Z,0.00
2023-03-29T00:40:27.212Z,0.00
2023-03-29T00:41:23.488Z,0.00
2023-03-29T00:42:18.672Z,0.00
2023-03-29T00:43:14.573Z,0.00
2023-03-29T00:44:09.620Z,0.00
2023-03-29T00:45:04.805Z,0.00
2023-03-29T00:46:00.745Z,0.00
2023-03-29T00:46:55.899Z,0.00
2023-03-29T00:47:51.952Z,0.00
2023-03-29T00:48:46.952Z,0.00
2023-03-29T00:49:42.169Z,0.00
2023-03-29T00:50:37.936Z,0.00
2023-03-29T00:51:33.134Z,0.00
2023-03-29T00:52:28.407Z,0.00
2023-03-29T00:53:23.474Z,0.00
2023-03-29T00:54:18.623Z,0.00
2023-03-29T00:55:13.686Z,0.00
2023-03-29T00:56:08.726Z,0.00
2023-03-29T00:57:07.604Z,0.00
2023-03-29T00:58:02.803Z,0.00
2023-03-29T00:58:57.868Z,0.00
2023-03-29T00:59:53.037Z,0.00
2023-03-29T01:00:48.087Z,0.00
2023-03-29T01:01:43.146Z,0.00
2023-03-29T01:02:38.275Z,0.00
2023-03-29T01:03:33.443Z,0.00
2023-03-29T01:04:28.303Z,0.00
2023-03-29T01:05:23.443Z,0.00
2023-03-29T01:06:18.516Z,0.00
2023-03-29T01:08:38.535Z,0.00
2023-03-29T01:11:00.740Z,0.00
2023-03-29T01:11:55.609Z,0.00
2023-03-29T01:12:50.743Z,0.00
2023-03-29T01:13:46.140Z,0.00
2023-03-29T01:14:40.996Z,0.00
2023-03-29T01:15:36.151Z,0.00
2023-03-29T01:16:31.327Z,0.00
2023-03-29T01:17:26.506Z,0.00
2023-03-29T01:18:21.650Z,0.00
2023-03-29T01:19:16.838Z,0.00
2023-03-29T01:20:11.982Z,0.00
2023-03-29T01:21:07.308Z,0.00
2023-03-29T01:22:02.336Z,0.00
2023-03-29T01:22:57.484Z,0.00
2023-03-29T01:23:52.803Z,0.00
2023-03-29T01:24:47.810Z,0.00
2023-03-29T01:25:42.961Z,0.00
2023-03-29T01:26:38.160Z,0.00
2023-03-29T01:27:33.314Z,0.00
2023-03-29T01:28:28.477Z,0.00
2023-03-29T01:29:23.790Z,0.00
2023-03-29T01:30:18.814Z,0.00
2023-03-29T01:31:14.079Z,0.00
2023-03-29T01:32:09.194Z,0.00
2023-03-29T01:33:04.222Z,0.00
2023-03-29T01:33:59.394Z,0.00
2023-03-29T01:34:54.525Z,0.00
2023-03-29T01:35:49.710Z,0.00
2023-03-29T01:36:44.769Z,0.00
2023-03-29T01:37:39.926Z,0.00
2023-03-29T01:38:35.062Z,0.00
2023-03-29T01:39:30.285Z,0.00
2023-03-29T01:40:25.439Z,0.00
2023-03-29T01:41:20.745Z,0.00
2023-03-29T01:42:15.741Z,0.00
2023-03-29T01:43:10.925Z,0.00
2023-03-29T01:44:06.233Z,0.00
2023-03-29T01:45:01.246Z,0.00
2023-03-29T01:45:56.416Z,0.00
2023-03-29T01:46:51.572Z,0.00
2023-03-29T01:47:46.753Z,0.00
2023-03-29T01:48:41.884Z,0.00
2023-03-29T01:49:37.235Z,0.00
2023-03-29T01:50:32.249Z,0.00
2023-03-29T01:51:27.516Z,0.00
2023-03-29T01:52:22.572Z,0.00
2023-03-29T01:53:17.707Z,0.00
2023-03-29T01:54:12.925Z,0.00
2023-03-29T01:55:08.064Z,0.00
2023-03-29T01:56:03.234Z,0.00
2023-03-29T01:56:58.462Z,0.00
2023-03-29T01:57:53.614Z,0.00
2023-03-29T01:58:48.758Z,0.00
2023-03-29T01:59:44.112Z,0.00
2023-03-29T02:00:39.140Z,0.00
2023-03-29T02:01:34.512Z,0.00
2023-03-29T02:02:29.690Z,0.00
2023-03-29T02:03:24.681Z,0.00
2023-03-29T02:04:19.716Z,0.00
2023-03-29T02:05:15.057Z,0.00
2023-03-29T02:06:09.923Z,0.00
2023-03-29T02:07:05.131Z,0.00
2023-03-29T02:08:00.470Z,0.00
2023-03-29T02:08:55.449Z,0.00
2023-03-29T02:09:50.638Z,0.00
2023-03-29T02:10:45.815Z,0.00
2023-03-29T02:11:41.128Z,0.00
2023-03-29T02:12:36.245Z,0.00
2023-03-29T02:13:31.312Z,0.00
2023-03-29T02:14:26.344Z,0.00
2023-03-29T02:15:24.173Z,0.00
2023-03-29T02:16:19.379Z,0.00
2023-03-29T02:17:14.507Z,0.00
2023-03-29T02:18:09.693Z,0.00
2023-03-29T02:19:04.853Z,0.00
2023-03-29T02:20:00.858Z,0.00
2023-03-29T02:20:55.850Z,0.00
2023-03-29T02:21:51.185Z,0.00
2023-03-29T02:22:46.793Z,0.00
2023-03-29T02:23:42.030Z,0.00
2023-03-29T02:24:37.779Z,0.00
2023-03-29T02:25:33.113Z,0.00
2023-03-29T02:26:28.276Z,0.00
2023-03-29T02:27:24.056Z,0.00
2023-03-29T02:28:19.208Z,0.00
2023-03-29T02:29:14.398Z,0.00
2023-03-29T02:30:10.688Z,0.00
2023-03-29T02:31:05.822Z,0.00
2023-03-29T02:32:01.541Z,0.00
2023-03-29T02:32:56.761Z,0.00
2023-03-29T02:33:51.830Z,0.00
2023-03-29T02:34:47.708Z,0.00
2023-03-29T02:35:43.168Z,0.00
2023-03-29T02:36:38.751Z,0.00
2023-03-29T02:37:33.873Z,0.00
2023-03-29T02:38:29.098Z,0.00
2023-03-29T02:39:24.817Z,0.00
2023-03-29T02:40:20.218Z,0.00
2023-03-29T02:41:15.216Z,0.00
2023-03-29T02:42:11.576Z,0.00
2023-03-29T02:43:06.719Z,0.00
2023-03-29T02:44:02.621Z,0.00
2023-03-29T02:44:57.778Z,0.00
2023-03-29T02:45:53.160Z,0.00
2023-03-29T02:46:48.811Z,0.00
2023-03-29T02:47:44.045Z,0.00
2023-03-29T02:48:39.876Z,0.00
2023-03-29T02:49:34.954Z,0.00
2023-03-29T02:50:30.265Z,0.00
2023-03-29T02:51:26.036Z,0.00
2023-03-29T02:52:21.248Z,0.00
2023-03-29T02:53:16.515Z,0.00
2023-03-29T02:54:12.783Z,0.00
2023-03-29T02:55:08.087Z,0.00
2023-03-29T02:56:03.976Z,0.00
2023-03-29T02:56:59.078Z,0.00
2023-03-29T02:57:54.465Z,0.00
2023-03-29T02:58:50.110Z,0.00
2023-03-29T02:59:45.282Z,0.00
2023-03-29T03:00:41.376Z,0.00
2023-03-29T03:01:36.411Z,0.00
2023-03-29T03:02:31.771Z,0.00
2023-03-29T03:03:27.511Z,0.00
2023-03-29T03:04:22.535Z,0.00
2023-03-29T03:05:17.686Z,0.00
2023-03-29T03:06:14.291Z,0.00
2023-03-29T03:07:09.226Z,0.00
2023-03-29T03:08:05.126Z,0.00
2023-03-29T03:09:00.259Z,0.00
2023-03-29T03:09:55.447Z,0.00
2023-03-29T03:10:51.328Z,0.00
2023-03-29T03:11:46.434Z,0.00
2023-03-29T03:12:42.161Z,0.00
2023-03-29T03:13:37.337Z,0.00
2023-03-29T03:14:32.551Z,0.00
2023-03-29T03:15:28.433Z,0.00
2023-03-29T03:16:23.887Z,0.00
2023-03-29T03:17:19.023Z,0.00
2023-03-29T03:18:15.314Z,0.00
2023-03-29T03:19:10.533Z,0.00
2023-03-29T03:20:05.742Z,0.00
2023-03-29T03:21:01.277Z,0.00
2023-03-29T03:21:57.520Z,0.00
2023-03-29T03:22:52.713Z,0.00
2023-03-29T03:23:47.872Z,0.00
2023-03-29T03:24:44.309Z,0.00
2023-03-29T03:25:39.492Z,0.00
2023-03-29T03:26:35.410Z,0.00
2023-03-29T03:27:30.545Z,0.00
2023-03-29T03:28:25.756Z,0.00
2023-03-29T03:29:21.480Z,0.00
2023-03-29T03:30:16.735Z,0.00
2023-03-29T03:31:12.662Z,0.00
2023-03-29T03:32:07.917Z,0.00
2023-03-29T03:33:03.019Z,0.00
2023-03-29T03:33:58.915Z,0.00
2023-03-29T03:34:54.091Z,0.00
2023-03-29T03:35:49.425Z,0.00
2023-03-29T03:36:45.900Z,0.00
2023-03-29T03:37:40.926Z,0.00
2023-03-29T03:38:36.113Z,0.00
2023-03-29T03:39:31.362Z,0.00
2023-03-29T03:40:27.845Z,0.00
2023-03-29T03:41:22.191Z,0.00
2023-03-29T03:42:17.553Z,0.00
2023-03-29T03:43:12.604Z,0.00
2023-03-29T03:44:08.320Z,0.00
2023-03-29T03:45:03.483Z,0.00
2023-03-29T03:45:58.639Z,0.00
2023-03-29T03:46:53.974Z,0.00
2023-03-29T03:47:49.044Z,0.00
2023-03-29T03:48:44.362Z,0.00
2023-03-29T03:49:40.656Z,0.00
2023-03-29T03:50:35.814Z,0.00
2023-03-29T03:51:31.139Z,0.00
2023-03-29T03:52:26.374Z,0.00
2023-03-29T03:53:21.424Z,0.00
2023-03-29T03:54:17.441Z,0.00
2023-03-29T03:55:12.594Z,0.00
2023-03-29T03:56:07.808Z,0.00
2023-03-29T03:57:03.246Z,0.00
2023-03-29T03:57:58.146Z,0.00
2023-03-29T03:58:53.444Z,0.00
2023-03-29T03:59:49.477Z,0.00
2023-03-29T04:00:44.641Z,0.00
2023-03-29T04:01:39.831Z,0.00
2023-03-29T04:02:35.133Z,0.00
2023-03-29T04:03:30.206Z,0.00
2023-03-29T04:04:25.332Z,0.00
2023-03-29T04:05:20.467Z,0.00
2023-03-29T04:06:15.503Z,0.00
2023-03-29T04:07:10.775Z,0.00
2023-03-29T04:08:05.827Z,0.00
2023-03-29T04:09:00.888Z,0.00
2023-03-29T04:09:55.901Z,0.00
2023-03-29T04:10:50.954Z,0.00
2023-03-29T04:11:45.987Z,0.00
2023-03-29T04:12:41.217Z,0.00
2023-03-29T04:13:36.201Z,0.00
2023-03-29T04:14:31.093Z,0.00
2023-03-29T04:15:26.130Z,0.00
2023-03-29T04:16:21.215Z,0.00
2023-03-29T04:17:16.215Z,0.00
2023-03-29T04:18:11.334Z,0.00
2023-03-29T04:19:06.291Z,0.00
2023-03-29T04:20:01.479Z,0.00
2023-03-29T04:20:56.396Z,0.00
2023-03-29T04:21:54.703Z,0.00
2023-03-29T04:22:49.655Z,0.00
2023-03-29T04:23:44.726Z,0.00
2023-03-29T04:24:40.033Z,0.00
2023-03-29T04:25:35.086Z,0.00
2023-03-29T04:26:30.170Z,0.00
2023-03-29T04:27:25.395Z,0.00
2023-03-29T04:28:20.384Z,0.00
2023-03-29T04:29:15.439Z,0.00
2023-03-29T04:30:10.504Z,0.00
2023-03-29T04:31:05.769Z,0.00
2023-03-29T04:32:00.754Z,0.00
2023-03-29T04:32:55.866Z,0.00
2023-03-29T04:33:55.062Z,1.00
2023-03-29T04:34:50.074Z,1.00
2023-03-29T04:35:45.411Z,0.00
2023-03-29T04:36:40.482Z,0.00
2023-03-29T04:37:35.326Z,1.00
2023-03-29T04:38:30.339Z,1.00
2023-03-29T04:39:25.433Z,1.00
2023-03-29T04:40:20.495Z,1.00
2023-03-29T04:41:15.674Z,2.00
2023-03-29T04:42:10.983Z,2.00
2023-03-29T04:43:05.958Z,2.00
2023-03-29T04:44:01.046Z,2.00
2023-03-29T04:44:56.274Z,3.00
2023-03-29T04:45:55.624Z,3.00
2023-03-29T04:46:50.759Z,4.00
2023-03-29T04:47:45.877Z,5.00
2023-03-29T04:48:40.839Z,6.00
2023-03-29T04:49:35.899Z,8.00
2023-03-29T04:50:30.988Z,9.00
2023-03-29T04:51:26.072Z,11.00
2023-03-29T04:52:23.203Z,14.00
2023-03-29T04:53:16.440Z,17.00
2023-03-29T04:54:11.535Z,19.00
2023-03-29T04:55:06.527Z,23.00
2023-03-29T04:56:01.677Z,28.00
2023-03-29T04:56:56.834Z,32.00
2023-03-29T04:57:51.927Z,37.00
2023-03-29T04:58:47.170Z,37.00
2023-03-29T04:59:42.980Z,50.00
2023-03-29T05:00:38.093Z,52.00
2023-03-29T05:01:33.986Z,60.00
2023-03-29T05:02:29.100Z,66.00
2023-03-29T05:03:24.551Z,77.00
2023-03-29T05:04:20.120Z,85.00
2023-03-29T05:05:15.478Z,96.00
2023-03-29T05:06:10.607Z,108.00
2023-03-29T05:07:07.317Z,117.00
2023-03-29T05:08:02.415Z,128.00
2023-03-29T05:08:58.178Z,145.00
2023-03-29T05:09:53.472Z,153.00
2023-03-29T05:10:48.690Z,181.00
2023-03-29T05:11:44.741Z,206.00
2023-03-29T05:12:39.895Z,238.00
2023-03-29T05:13:35.760Z,259.00
2023-03-29T05:14:31.010Z,311.00
2023-03-29T05:15:26.496Z,347.00
2023-03-29T05:16:22.405Z,357.00
2023-03-29T05:17:17.620Z,422.00
2023-03-29T05:18:12.920Z,451.00
2023-03-29T05:19:08.170Z,540.00
2023-03-29T05:20:04.159Z,578.00
2023-03-29T05:20:59.512Z,573.00
2023-03-29T05:21:54.873Z,681.00
2023-03-29T05:22:50.528Z,713.00
2023-03-29T05:23:46.057Z,703.00
2023-03-29T05:24:41.141Z,746.00
2023-03-29T05:25:37.647Z,878.00
2023-03-29T05:26:33.034Z,863.00
2023-03-29T05:27:28.707Z,895.00
2023-03-29T05:28:24.067Z,889.00
2023-03-29T05:29:19.377Z,825.00
2023-03-29T05:30:15.145Z,708.00
2023-03-29T05:31:10.458Z,651.00
2023-03-29T05:32:06.229Z,677.00
2023-03-29T05:33:01.678Z,794.00
2023-03-29T05:33:56.946Z,821.00
2023-03-29T05:34:52.762Z,870.00
2023-03-29T05:35:48.023Z,1004.00
2023-03-29T05:36:43.570Z,1069.00
2023-03-29T05:37:38.683Z,1211.00
2023-03-29T05:38:34.136Z,1244.00
2023-03-29T05:39:29.539Z,1307.00
2023-03-29T05:40:24.703Z,1342.00
2023-03-29T05:41:19.894Z,1337.00
2023-03-29T05:42:14.951Z,1189.00
2023-03-29T05:43:10.131Z,966.00
2023-03-29T05:44:05.191Z,971.00
2023-03-29T05:45:00.255Z,875.00
2023-03-29T05:45:55.644Z,860.00
2023-03-29T05:46:50.608Z,878.00
2023-03-29T05:47:45.663Z,848.00
2023-03-29T05:48:40.623Z,852.00
2023-03-29T05:49:35.916Z,811.00
2023-03-29T05:50:31.186Z,799.00
2023-03-29T05:51:26.178Z,814.00
2023-03-29T05:52:21.140Z,870.00
2023-03-29T05:53:16.323Z,991.00
2023-03-29T05:54:11.319Z,1062.00
2023-03-29T05:55:07.037Z,1111.00
2023-03-29T05:56:02.602Z,1009.00
2023-03-29T05:56:57.925Z,1032.00
2023-03-29T05:57:54.083Z,1104.00
2023-03-29T05:58:49.560Z,1118.00
2023-03-29T05:59:44.885Z,1176.00
2023-03-29T06:00:40.346Z,1299.00
2023-03-29T06:01:35.508Z,1338.00
2023-03-29T06:02:30.998Z,1381.00
2023-03-29T06:03:26.274Z,1489.00
2023-03-29T06:04:21.665Z,1578.00
2023-03-29T06:05:16.892Z,1598.00
2023-03-29T06:06:12.513Z,1517.00
2023-03-29T06:07:07.619Z,1468.00
2023-03-29T06:08:03.080Z,1446.00
2023-03-29T06:08:58.459Z,1469.00
2023-03-29T06:09:53.935Z,1553.00
2023-03-29T06:10:49.217Z,1646.00
2023-03-29T06:11:44.659Z,1666.00
2023-03-29T06:12:40.082Z,1718.00
2023-03-29T06:13:35.447Z,1713.00
2023-03-29T06:14:30.474Z,1871.00
2023-03-29T06:15:25.549Z,1816.00
2023-03-29T06:16:20.576Z,1828.00
2023-03-29T06:17:15.674Z,1944.00
2023-03-29T06:18:10.756Z,2068.00
2023-03-29T06:19:05.858Z,2197.00
2023-03-29T06:20:00.800Z,2279.00
2023-03-29T06:20:55.898Z,2332.00
2023-03-29T06:21:50.815Z,2372.00
2023-03-29T06:22:45.884Z,2461.00
2023-03-29T06:23:41.425Z,2499.00
2023-03-29T06:24:36.773Z,2603.00
2023-03-29T06:25:32.344Z,2675.00
2023-03-29T06:26:27.999Z,2794.00
2023-03-29T06:27:23.040Z,2774.00
2023-03-29T06:28:18.377Z,2919.00
2023-03-29T06:29:13.794Z,3099.00
2023-03-29T06:30:09.282Z,3227.00
2023-03-29T06:31:04.566Z,3279.00
2023-03-29T06:31:59.701Z,2881.00
2023-03-29T06:32:55.096Z,2514.00
2023-03-29T06:33:50.337Z,2403.00
2023-03-29T06:34:45.688Z,2335.00
2023-03-29T06:35:41.087Z,2468.00
2023-03-29T06:36:36.584Z,2467.00
2023-03-29T06:37:31.738Z,2650.00
2023-03-29T06:38:27.059Z,2679.00
2023-03-29T06:39:22.548Z,2737.00
2023-03-29T06:40:17.948Z,2693.00
2023-03-29T06:41:13.456Z,2700.00
2023-03-29T06:42:20.226Z,2824.00
2023-03-29T06:43:06.474Z,3127.00
2023-03-29T06:44:00.780Z,3415.00
2023-03-29T06:44:56.107Z,3553.00
2023-03-29T06:45:51.599Z,3645.00
2023-03-29T06:46:47.342Z,4276.00
2023-03-29T06:47:42.644Z,4355.00
2023-03-29T06:48:38.297Z,4292.00
2023-03-29T06:49:33.730Z,3949.00
2023-03-29T06:50:29.340Z,3694.00
2023-03-29T06:51:24.695Z,3480.00
2023-03-29T06:52:20.013Z,3479.00
2023-03-29T06:53:15.130Z,3501.00
2023-03-29T06:54:10.071Z,3640.00
2023-03-29T06:55:05.217Z,3766.00
2023-03-29T06:56:01.940Z,4025.00
2023-03-29T06:56:56.864Z,4312.00
2023-03-29T06:57:51.904Z,4517.00
2023-03-29T06:58:46.975Z,4641.00
2023-03-29T06:59:42.092Z,4858.00
2023-03-29T07:00:37.253Z,4904.00
2023-03-29T07:01:32.304Z,5404.00
2023-03-29T07:02:27.276Z,5581.00
2023-03-29T07:03:22.417Z,5658.00
2023-03-29T07:04:17.643Z,5372.00
2023-03-29T07:05:12.469Z,5353.00
2023-03-29T07:06:07.676Z,5683.00
2023-03-29T07:07:02.629Z,5702.00
2023-03-29T07:07:57.702Z,5863.00
2023-03-29T07:08:52.797Z,6045.00
2023-03-29T07:09:47.967Z,6058.00
2023-03-29T07:10:43.241Z,6190.00
2023-03-29T07:11:38.151Z,6317.00
2023-03-29T07:12:33.201Z,6514.00
2023-03-29T07:13:28.264Z,6542.00
2023-03-29T07:14:23.351Z,6891.00
2023-03-29T07:15:18.439Z,7440.00
2023-03-29T07:16:14.284Z,7446.00
2023-03-29T07:17:09.520Z,7529.00
2023-03-29T07:18:05.110Z,7820.00
2023-03-29T07:19:00.447Z,7876.00
2023-03-29T07:19:55.900Z,7743.00
2023-03-29T07:20:51.393Z,7720.00
2023-03-29T07:21:46.602Z,8249.00
2023-03-29T07:22:42.033Z,8729.00
2023-03-29T07:23:37.374Z,9169.00
2023-03-29T07:24:32.681Z,8906.00
2023-03-29T07:25:28.044Z,9990.00
2023-03-29T07:26:28.742Z,10422.00
2023-03-29T07:27:19.204Z,10370.00
2023-03-29T07:28:13.220Z,9772.00
2023-03-29T07:29:08.273Z,9120.00
2023-03-29T07:30:03.315Z,8809.00
2023-03-29T07:30:58.469Z,8277.00
2023-03-29T07:31:53.368Z,7409.00
2023-03-29T07:32:48.495Z,6985.00
2023-03-29T07:33:43.674Z,6623.00
2023-03-29T07:34:38.648Z,5819.00
2023-03-29T07:35:35.776Z,5673.00
2023-03-29T07:36:31.049Z,5837.00
2023-03-29T07:37:26.311Z,5685.00
2023-03-29T07:38:21.831Z,5492.00
2023-03-29T07:39:17.132Z,5558.00
2023-03-29T07:40:12.724Z,5260.00
2023-03-29T07:41:08.182Z,5327.00
2023-03-29T07:42:03.369Z,5204.00
2023-03-29T07:42:58.843Z,5034.00
2023-03-29T07:43:54.186Z,4961.00
2023-03-29T07:44:49.470Z,4749.00
2023-03-29T07:45:45.049Z,4455.00
2023-03-29T07:46:40.678Z,4416.00
2023-03-29T07:47:36.048Z,4447.00
2023-03-29T07:48:31.329Z,4759.00
2023-03-29T07:49:26.559Z,5025.00
2023-03-29T07:50:21.559Z,5091.00
2023-03-29T07:51:16.815Z,5220.00
2023-03-29T07:52:11.655Z,4975.00
2023-03-29T07:53:06.759Z,5391.00
2023-03-29T07:54:01.829Z,5528.00
2023-03-29T07:54:56.888Z,5967.00
2023-03-29T07:55:52.062Z,6252.00
2023-03-29T07:56:47.031Z,6463.00
2023-03-29T07:57:42.061Z,6279.00
2023-03-29T07:58:38.437Z,6249.00
2023-03-29T07:59:33.427Z,6629.00
2023-03-29T08:00:28.838Z,6673.00
2023-03-29T08:01:23.755Z,6609.00
2023-03-29T08:02:18.816Z,6757.00
2023-03-29T08:03:14.001Z,7029.00
2023-03-29T08:04:08.986Z,7238.00
2023-03-29T08:05:04.148Z,7243.00
2023-03-29T08:05:59.646Z,7339.00
2023-03-29T08:06:54.013Z,7799.00
2023-03-29T08:07:49.087Z,8507.00
2023-03-29T08:08:44.108Z,9142.00
2023-03-29T08:09:39.171Z,9264.00
2023-03-29T08:10:34.296Z,9520.00
2023-03-29T08:11:29.349Z,9617.00
2023-03-29T08:12:25.081Z,8970.00
2023-03-29T08:13:19.621Z,9031.00
2023-03-29T08:14:14.921Z,8932.00
2023-03-29T08:15:10.451Z,9882.00
2023-03-29T08:16:05.650Z,10665.00
2023-03-29T08:17:01.351Z,10820.00
2023-03-29T08:17:56.839Z,10232.00
2023-03-29T08:18:52.240Z,9864.00
2023-03-29T08:19:51.154Z,10172.00
2023-03-29T08:20:43.177Z,10337.00
2023-03-29T08:21:38.399Z,10317.00
2023-03-29T08:22:33.810Z,10748.00
2023-03-29T08:23:29.139Z,10562.00
2023-03-29T08:24:24.215Z,10796.00
2023-03-29T08:25:19.390Z,10816.00
2023-03-29T08:26:14.389Z,10912.00
2023-03-29T08:27:09.483Z,10992.00
2023-03-29T08:28:04.435Z,11194.00
2023-03-29T08:28:59.668Z,11194.00
2023-03-29T08:29:54.563Z,11168.00
2023-03-29T08:30:50.711Z,11274.00
2023-03-29T08:31:45.688Z,11394.00
2023-03-29T08:32:40.653Z,11188.00
2023-03-29T08:33:35.617Z,11429.00
2023-03-29T08:34:30.699Z,11370.00
2023-03-29T08:35:26.024Z,10822.00
2023-03-29T08:36:20.867Z,10125.00
2023-03-29T08:37:15.901Z,8847.00
2023-03-29T08:38:11.047Z,8815.00
2023-03-29T08:39:06.151Z,8663.00
2023-03-29T08:40:01.265Z,8643.00
2023-03-29T08:40:56.332Z,8985.00
2023-03-29T08:41:51.433Z,9484.00
2023-03-29T08:42:46.485Z,9661.00
2023-03-29T08:43:41.908Z,9818.00
2023-03-29T08:44:37.282Z,9991.00
2023-03-29T08:45:32.813Z,10206.00
2023-03-29T08:46:35.071Z,10343.00
2023-03-29T08:47:26.846Z,10650.00
2023-03-29T08:48:21.079Z,10828.00
2023-03-29T08:49:16.494Z,10833.00
2023-03-29T08:50:11.994Z,11024.00
2023-03-29T08:51:09.925Z,11737.00
2023-03-29T08:52:02.922Z,11676.00
2023-03-29T08:52:58.192Z,12299.00
2023-03-29T08:53:53.164Z,12750.00
2023-03-29T08:54:48.254Z,13757.00
2023-03-29T08:55:43.364Z,14951.00
2023-03-29T08:56:38.391Z,15950.00
2023-03-29T08:57:33.422Z,16225.00
2023-03-29T08:58:28.497Z,15706.00
2023-03-29T08:59:23.487Z,15899.00
2023-03-29T09:00:18.699Z,16888.00
2023-03-29T09:01:13.867Z,15178.00
2023-03-29T09:02:08.775Z,13005.00
2023-03-29T09:03:03.880Z,11949.00
2023-03-29T09:03:59.081Z,10985.00
2023-03-29T09:04:53.923Z,11135.00
2023-03-29T09:05:49.111Z,11423.00
2023-03-29T09:06:48.427Z,11411.00
2023-03-29T09:07:43.821Z,11016.00
2023-03-29T09:08:39.177Z,10171.00
2023-03-29T09:09:34.537Z,9072.00
2023-03-29T09:10:30.192Z,9149.00
2023-03-29T09:11:25.748Z,8798.00
2023-03-29T09:12:21.070Z,9119.00
2023-03-29T09:13:16.435Z,8759.00
2023-03-29T09:14:11.892Z,8937.00
2023-03-29T09:15:07.037Z,10163.00
2023-03-29T09:16:02.459Z,11250.00
2023-03-29T09:16:58.112Z,11767.00
2023-03-29T09:17:53.234Z,11267.00
2023-03-29T09:18:48.607Z,11624.00
2023-03-29T09:19:43.956Z,11722.00
2023-03-29T09:20:39.776Z,11139.00
2023-03-29T09:21:34.934Z,11434.00
2023-03-29T09:22:30.233Z,10507.00
2023-03-29T09:23:25.350Z,10591.00
2023-03-29T09:24:20.412Z,10416.00
2023-03-29T09:25:15.522Z,10474.00
2023-03-29T09:26:10.852Z,10260.00
2023-03-29T09:27:05.698Z,10269.00
2023-03-29T09:28:00.754Z,10407.00
2023-03-29T09:28:55.821Z,10751.00
2023-03-29T09:29:53.213Z,11468.00
2023-03-29T09:30:48.443Z,12060.00
2023-03-29T09:31:43.300Z,12228.00
2023-03-29T09:32:38.501Z,12260.00
2023-03-29T09:33:33.433Z,12936.00
2023-03-29T09:34:28.585Z,12906.00
2023-03-29T09:35:23.642Z,12605.00
2023-03-29T09:36:18.786Z,13068.00
2023-03-29T09:37:13.692Z,13522.00
2023-03-29T09:38:08.706Z,14103.00
2023-03-29T09:39:03.779Z,14046.00
2023-03-29T09:39:58.843Z,13509.00
2023-03-29T09:40:53.904Z,14101.00
2023-03-29T09:41:49.381Z,14547.00
2023-03-29T09:42:44.822Z,15567.00
2023-03-29T09:43:40.102Z,14648.00
2023-03-29T09:44:35.567Z,14491.00
2023-03-29T09:45:31.022Z,15025.00
2023-03-29T09:46:26.470Z,15420.00
2023-03-29T09:47:22.030Z,16342.00
2023-03-29T09:48:17.469Z,16856.00
2023-03-29T09:49:13.692Z,16632.00
2023-03-29T09:50:16.643Z,17000.00
2023-03-29T09:51:05.132Z,16952.00
2023-03-29T09:51:59.605Z,17296.00
2023-03-29T09:52:58.396Z,17520.00
2023-03-29T09:53:54.048Z,17168.00
2023-03-29T09:54:49.353Z,17304.00
2023-03-29T09:55:44.979Z,17360.00
2023-03-29T09:56:40.456Z,17536.00
2023-03-29T09:57:35.883Z,18704.00
2023-03-29T09:58:31.314Z,21456.00
2023-03-29T09:59:26.735Z,16960.00
2023-03-29T10:00:22.346Z,16712.00
2023-03-29T10:01:17.743Z,15934.00
2023-03-29T10:02:13.154Z,15727.00
2023-03-29T10:03:10.579Z,17496.00
2023-03-29T10:04:04.098Z,17392.00
2023-03-29T10:04:59.583Z,15792.00
2023-03-29T10:05:55.330Z,15488.00
2023-03-29T10:06:50.611Z,17480.00
2023-03-29T10:07:46.036Z,21160.00
2023-03-29T10:08:41.428Z,26920.00
2023-03-29T10:09:36.886Z,25984.00
2023-03-29T10:10:32.451Z,30480.00
2023-03-29T10:11:27.683Z,23760.00
2023-03-29T10:12:23.159Z,19888.00
2023-03-29T10:13:18.673Z,17592.00
2023-03-29T10:14:14.119Z,17064.00
2023-03-29T10:15:26.692Z,17024.00
2023-03-29T10:16:10.141Z,19664.00
2023-03-29T10:17:04.473Z,24032.00
2023-03-29T10:17:59.864Z,25616.00
2023-03-29T10:18:55.179Z,30424.00
2023-03-29T10:19:50.580Z,31104.00
2023-03-29T10:20:45.966Z,25976.00
2023-03-29T10:21:41.327Z,25944.00
2023-03-29T10:22:36.766Z,20840.00
2023-03-29T10:23:32.250Z,19640.00
2023-03-29T10:24:27.280Z,20936.00
2023-03-29T10:25:22.332Z,19528.00
2023-03-29T10:26:17.524Z,16856.00
2023-03-29T10:27:12.400Z,16792.00
2023-03-29T10:28:07.505Z,17760.00
2023-03-29T10:29:02.596Z,18984.00
2023-03-29T10:29:57.596Z,22816.00
2023-03-29T10:30:52.817Z,26520.00
2023-03-29T10:31:47.768Z,29864.00
2023-03-29T10:32:42.870Z,31376.00
2023-03-29T10:33:37.942Z,37944.00
2023-03-29T10:34:32.980Z,39656.00
2023-03-29T10:35:28.164Z,32512.00
2023-03-29T10:36:23.654Z,27720.00
2023-03-29T10:37:19.619Z,25840.00
2023-03-29T10:38:14.714Z,20640.00
2023-03-29T10:39:10.240Z,19616.00
2023-03-29T10:40:06.097Z,17128.00
2023-03-29T10:41:01.876Z,17696.00
2023-03-29T10:41:57.239Z,17176.00
2023-03-29T10:42:52.562Z,18176.00
2023-03-29T10:43:47.998Z,18616.00
2023-03-29T10:44:43.754Z,20736.00
2023-03-29T10:45:39.210Z,20584.00
2023-03-29T10:46:34.849Z,21504.00
2023-03-29T10:47:31.088Z,23192.00
2023-03-29T10:48:26.658Z,33664.00
2023-03-29T10:49:22.425Z,29736.00
2023-03-29T10:50:17.907Z,65535.00
2023-03-29T10:51:13.530Z,35648.00
2023-03-29T10:52:09.252Z,28000.00
2023-03-29T10:53:04.746Z,27272.00
2023-03-29T10:54:00.610Z,27864.00
2023-03-29T10:54:55.875Z,24488.00
2023-03-29T10:55:51.356Z,23688.00
2023-03-29T10:56:47.226Z,22768.00
2023-03-29T10:57:42.617Z,21832.00
2023-03-29T10:58:38.134Z,21728.00
2023-03-29T10:59:34.523Z,21544.00
2023-03-29T11:00:29.999Z,20000.00
2023-03-29T11:01:26.197Z,17168.00
2023-03-29T11:02:21.650Z,17216.00
2023-03-29T11:03:18.803Z,19592.00
2023-03-29T11:04:12.757Z,20912.00
2023-03-29T11:05:08.202Z,20576.00
2023-03-29T11:06:04.241Z,21480.00
2023-03-29T11:06:59.439Z,23208.00
2023-03-29T11:07:54.939Z,27552.00
2023-03-29T11:08:50.804Z,26008.00
2023-03-29T11:09:46.005Z,26168.00
2023-03-29T11:10:41.526Z,26128.00
2023-03-29T11:11:37.899Z,25880.00
2023-03-29T11:12:33.220Z,25408.00
2023-03-29T11:13:29.155Z,25968.00
2023-03-29T11:14:24.665Z,25160.00
2023-03-29T11:15:20.144Z,25880.00
2023-03-29T11:16:16.071Z,23464.00
2023-03-29T11:17:11.439Z,23856.00
2023-03-29T11:18:07.421Z,22000.00
2023-03-29T11:19:02.749Z,20264.00
2023-03-29T11:19:58.274Z,21752.00
2023-03-29T11:20:53.852Z,24000.00
2023-03-29T11:21:49.278Z,25264.00
2023-03-29T11:22:44.784Z,23464.00
2023-03-29T11:23:41.104Z,23624.00
2023-03-29T11:24:36.751Z,23664.00
2023-03-29T11:25:32.768Z,23960.00
2023-03-29T11:26:27.873Z,23488.00
2023-03-29T11:27:23.229Z,22768.00
2023-03-29T11:28:18.698Z,23384.00
2023-03-29T11:29:14.428Z,30368.00
2023-03-29T11:30:09.964Z,22352.00
2023-03-29T11:31:06.033Z,27784.00
2023-03-29T11:32:01.338Z,26288.00
2023-03-29T11:32:56.821Z,31336.00
2023-03-29T11:33:52.397Z,26232.00
2023-03-29T11:34:48.540Z,26400.00
2023-03-29T11:35:44.034Z,22312.00